createdAt,value
2023-03-04T00:01:40.830Z,102377.88
2023-03-04T00:04:08.307Z,102375.25
2023-03-04T00:06:35.788Z,102378.78
2023-03-04T00:09:04.169Z,102375.25
2023-03-04T00:11:33.514Z,102379.63
2023-03-04T00:14:00.983Z,102377.88
2023-03-04T00:16:28.642Z,102378.78
2023-03-04T00:18:56.132Z,102377.03
2023-03-04T00:21:23.706Z,102370.09
2023-03-04T00:23:51.413Z,102374.41
2023-03-04T00:26:19.178Z,102377.00
2023-03-04T00:28:48.002Z,102380.47
2023-03-04T00:31:15.553Z,102379.63
2023-03-04T00:33:44.277Z,102368.25
2023-03-04T00:36:11.909Z,102376.09
2023-03-04T00:38:39.498Z,102369.16
2023-03-04T00:41:06.980Z,102371.72
2023-03-04T00:43:34.509Z,102371.72
2023-03-04T00:46:03.494Z,102364.78
2023-03-04T00:48:31.051Z,102369.16
2023-03-04T00:50:58.540Z,102368.31
2023-03-04T00:53:26.029Z,102358.69
2023-03-04T00:55:53.522Z,102371.78
2023-03-04T00:58:21.043Z,102368.31
2023-03-04T01:00:48.554Z,102369.22
2023-03-04T01:03:17.643Z,102363.13
2023-03-04T01:05:45.110Z,102365.81
2023-03-04T01:08:12.633Z,102367.50
2023-03-04T01:10:40.118Z,102367.50
2023-03-04T01:13:07.670Z,102369.22
2023-03-04T01:15:35.152Z,102362.28
2023-03-04T01:18:02.704Z,102361.38
2023-03-04T01:20:31.639Z,102365.75
2023-03-04T01:22:59.183Z,102367.50
2023-03-04T01:25:26.595Z,102371.03
2023-03-04T01:27:54.131Z,102365.81
2023-03-04T01:30:21.700Z,102362.28
2023-03-04T01:32:49.275Z,102360.56
2023-03-04T01:35:16.738Z,102365.81
2023-03-04T01:37:45.584Z,102356.25
2023-03-04T01:40:13.833Z,102354.47
2023-03-04T01:42:41.382Z,102353.63
2023-03-04T01:45:11.607Z,102339.63
2023-03-04T01:47:39.150Z,102337.88
2023-03-04T01:50:08.879Z,102323.94
2023-03-04T01:52:36.384Z,102322.22
2023-03-04T01:55:07.583Z,102323.06
2023-03-04T01:57:36.053Z,102329.16
2023-03-04T02:00:13.194Z,102322.22
2023-03-04T02:02:40.621Z,102317.84
2023-03-04T02:05:08.171Z,102322.16
2023-03-04T02:07:35.735Z,102320.41
2023-03-04T02:10:03.265Z,102312.56
2023-03-04T02:12:32.061Z,102309.09
2023-03-04T02:14:59.551Z,102303.84
2023-03-04T02:17:27.241Z,102309.94
2023-03-04T02:19:55.470Z,102310.84
2023-03-04T02:22:23.034Z,102312.59
2023-03-04T02:24:51.322Z,102310.03
2023-03-04T02:27:22.032Z,102305.66
2023-03-04T02:29:49.777Z,102310.91
2023-03-04T02:32:17.283Z,102313.47
2023-03-04T02:34:47.124Z,102298.66
2023-03-04T02:37:14.676Z,102302.13
2023-03-04T02:39:42.559Z,102301.22
2023-03-04T02:42:10.700Z,102294.28
2023-03-04T02:44:40.360Z,102288.19
2023-03-04T02:47:08.677Z,102286.44
2023-03-04T02:49:37.317Z,102280.34
2023-03-04T02:52:05.907Z,102284.72
2023-03-04T02:54:33.518Z,102289.09
2023-03-04T02:57:01.828Z,102286.50
2023-03-04T02:59:29.303Z,102282.16
2023-03-04T03:01:58.268Z,102282.16
2023-03-04T03:04:25.774Z,102281.25
2023-03-04T03:06:53.534Z,102280.44
2023-03-04T03:09:21.102Z,102281.28
2023-03-04T03:11:48.580Z,102276.94
2023-03-04T03:14:16.137Z,102275.19
2023-03-04T03:16:43.722Z,102266.50
2023-03-04T03:19:12.639Z,102270.88
2023-03-04T03:21:40.141Z,102263.00
2023-03-04T03:24:08.555Z,102260.41
2023-03-04T03:26:36.010Z,102258.69
2023-03-04T03:29:03.539Z,102262.22
2023-03-04T03:31:31.105Z,102251.75
2023-03-04T03:33:58.630Z,102260.44
2023-03-04T03:36:27.620Z,102256.97
2023-03-04T03:38:55.153Z,102250.03
2023-03-04T03:41:22.642Z,102252.66
2023-03-04T03:43:50.183Z,102252.66
2023-03-04T03:46:17.664Z,102250.94
2023-03-04T03:48:45.156Z,102246.56
2023-03-04T03:51:12.657Z,102249.19
2023-03-04T03:53:41.521Z,102246.56
2023-03-04T03:56:08.963Z,102248.34
2023-03-04T03:58:36.442Z,102245.72
2023-03-04T04:01:03.958Z,102253.56
2023-03-04T04:03:31.511Z,102249.25
2023-03-04T04:05:58.998Z,102245.72
2023-03-04T04:08:26.499Z,102253.56
2023-03-04T04:10:55.302Z,102241.34
2023-03-04T04:13:22.755Z,102242.19
2023-03-04T04:15:50.216Z,102244.81
2023-03-04T04:18:17.733Z,102242.19
2023-03-04T04:20:45.263Z,102246.56
2023-03-04T04:23:12.703Z,102239.63
2023-03-04T04:25:40.161Z,102244.84
2023-03-04T04:28:09.019Z,102240.47
2023-03-04T04:30:36.559Z,102245.72
2023-03-04T04:33:04.885Z,102245.72
2023-03-04T04:35:32.801Z,102246.63
2023-03-04T04:38:00.323Z,102242.25
2023-03-04T04:40:27.877Z,102237.03
2023-03-04T04:42:55.399Z,102245.78
2023-03-04T04:45:24.767Z,102239.69
2023-03-04T04:47:52.262Z,102240.63
2023-03-04T04:50:19.813Z,102241.47
2023-03-04T04:52:47.294Z,102238.03
2023-03-04T04:55:14.813Z,102239.81
2023-03-04T04:57:42.288Z,102245.91
2023-03-04T05:00:10.247Z,102246.75
2023-03-04T05:02:39.645Z,102256.38
2023-03-04T05:05:07.879Z,102246.81
2023-03-04T05:07:35.328Z,102245.91
2023-03-04T05:10:02.941Z,102244.19
2023-03-04T05:12:30.484Z,102244.19
2023-03-04T05:14:58.006Z,102246.81
2023-03-04T05:17:25.494Z,102253.81
2023-03-04T05:19:54.395Z,102252.09
2023-03-04T05:22:21.843Z,102240.78
2023-03-04T05:24:49.307Z,102240.78
2023-03-04T05:27:16.809Z,102237.25
2023-03-04T05:29:46.733Z,102239.91
2023-03-04T05:32:14.305Z,102242.56
2023-03-04T05:34:41.811Z,102238.19
2023-03-04T05:37:10.659Z,102237.31
2023-03-04T05:39:38.144Z,102240.78
2023-03-04T05:42:05.612Z,102238.19
2023-03-04T05:44:33.116Z,102250.38
2023-03-04T05:47:00.607Z,102239.03
2023-03-04T05:49:28.139Z,102234.72
2023-03-04T05:51:55.646Z,102238.19
2023-03-04T05:54:24.555Z,102239.03
2023-03-04T05:56:52.021Z,102243.41
2023-03-04T05:59:21.527Z,102235.63
2023-03-04T06:01:49.274Z,102236.47
2023-03-04T06:04:16.735Z,102239.94
2023-03-04T06:06:46.491Z,102236.47
2023-03-04T06:09:13.945Z,102242.59
2023-03-04T06:11:42.817Z,102237.44
2023-03-04T06:14:10.329Z,102240.03
2023-03-04T06:16:37.853Z,102240.94
2023-03-04T06:19:05.356Z,102247.09
2023-03-04T06:21:32.819Z,102250.63
2023-03-04T06:24:00.228Z,102244.56
2023-03-04T06:26:27.806Z,102242.84
2023-03-04T06:28:57.062Z,102249.88
2023-03-04T06:31:24.624Z,102249.09
2023-03-04T06:33:52.160Z,102257.84
2023-03-04T06:36:19.749Z,102255.25
2023-03-04T06:38:47.221Z,102254.38
2023-03-04T06:41:14.801Z,102251.78
2023-03-04T06:43:42.276Z,102257.00
2023-03-04T06:46:11.157Z,102260.47
2023-03-04T06:48:38.694Z,102264.00
2023-03-04T06:51:06.970Z,102254.44
2023-03-04T06:53:34.440Z,102259.72
2023-03-04T06:56:01.964Z,102262.28
2023-03-04T06:58:29.486Z,102260.53
2023-03-04T07:00:57.120Z,102257.84
2023-03-04T07:03:26.058Z,102260.41
2023-03-04T07:05:53.537Z,102259.56
2023-03-04T07:08:22.100Z,102261.31
2023-03-04T07:10:50.172Z,102265.66
2023-03-04T07:13:17.622Z,102266.53
2023-03-04T07:15:45.148Z,102270.00
2023-03-04T07:18:12.576Z,102265.59
2023-03-04T07:20:41.449Z,102272.53
2023-03-04T07:23:08.973Z,102275.19
2023-03-04T07:25:36.424Z,102269.97
2023-03-04T07:28:03.858Z,102274.34
2023-03-04T07:30:31.369Z,102265.59
2023-03-04T07:32:59.064Z,102267.28
2023-03-04T07:35:26.596Z,102265.47
2023-03-04T07:37:55.484Z,102268.03
2023-03-04T07:40:23.000Z,102268.94
2023-03-04T07:42:50.878Z,102266.25
2023-03-04T07:45:18.341Z,102275.75
2023-03-04T07:47:45.839Z,102273.94
2023-03-04T07:50:17.627Z,102272.16
2023-03-04T07:52:46.190Z,102271.25
2023-03-04T07:55:16.169Z,102272.06
2023-03-04T07:57:44.035Z,102263.31
2023-03-04T08:00:12.149Z,102264.09
2023-03-04T08:02:39.678Z,102268.44
2023-03-04T08:05:07.425Z,102264.94
2023-03-04T08:07:34.970Z,102270.19
2023-03-04T08:10:02.429Z,102259.72
2023-03-04T08:12:31.368Z,102270.97
2023-03-04T08:14:58.845Z,102270.91
2023-03-04T08:17:26.362Z,102273.47
2023-03-04T08:19:53.904Z,102268.25
2023-03-04T08:22:21.443Z,102280.44
2023-03-04T08:24:48.904Z,102275.13
2023-03-04T08:27:16.739Z,102272.50
2023-03-04T08:29:45.691Z,102264.66
2023-03-04T08:32:13.276Z,102270.69
2023-03-04T08:34:40.834Z,102281.09
2023-03-04T08:37:08.450Z,102273.19
2023-03-04T08:39:36.435Z,102275.72
2023-03-04T08:42:03.965Z,102275.63
2023-03-04T08:44:31.534Z,102272.81
2023-03-04T08:47:00.420Z,102271.00
2023-03-04T08:49:27.860Z,102266.38
2023-03-04T08:51:55.424Z,102269.66
2023-03-04T08:54:22.913Z,102278.22
2023-03-04T08:56:50.452Z,102273.72
2023-03-04T08:59:17.911Z,102273.59
2023-03-04T09:01:45.446Z,102269.16
2023-03-04T09:04:14.339Z,102277.88
2023-03-04T09:06:41.859Z,102270.00
2023-03-04T09:09:09.506Z,102272.63
2023-03-04T09:11:37.075Z,102273.53
2023-03-04T09:14:04.544Z,102275.25
2023-03-04T09:16:32.102Z,102271.84
2023-03-04T09:18:59.540Z,102273.53
2023-03-04T09:21:28.530Z,102275.31
2023-03-04T09:23:56.103Z,102275.38
2023-03-04T09:26:24.190Z,102274.50
2023-03-04T09:28:52.549Z,102275.47
2023-03-04T09:31:20.157Z,102273.72
2023-03-04T09:33:47.727Z,102273.72
2023-03-04T09:36:15.583Z,102272.84
2023-03-04T09:38:44.518Z,102271.94
2023-03-04T09:41:15.039Z,102271.03
2023-03-04T09:43:42.608Z,102273.53
2023-03-04T09:46:11.856Z,102262.16
2023-03-04T09:48:41.294Z,102268.25
2023-03-04T09:51:12.551Z,102268.25
2023-03-04T09:53:41.723Z,102261.25
2023-03-04T09:56:11.574Z,102270.88
2023-03-04T09:58:44.558Z,102271.72
2023-03-04T10:01:12.411Z,102270.06
2023-03-04T10:03:43.197Z,102264.88
2023-03-04T10:06:11.636Z,102264.94
2023-03-04T10:08:39.903Z,102261.47
2023-03-04T10:11:09.874Z,102257.09
2023-03-04T10:13:39.980Z,102259.66
2023-03-04T10:16:08.341Z,102257.88
2023-03-04T10:18:37.652Z,102259.66
2023-03-04T10:21:06.000Z,102268.41
2023-03-04T10:23:37.575Z,102259.66
2023-03-04T10:26:11.832Z,102257.81
2023-03-04T10:28:40.706Z,102263.00
2023-03-04T10:31:10.473Z,102254.13
2023-03-04T10:33:38.999Z,102254.06
2023-03-04T10:36:07.491Z,102253.94
2023-03-04T10:38:35.646Z,102247.56
2023-03-04T10:41:03.454Z,102246.34
2023-03-04T10:43:31.030Z,102254.00
2023-03-04T10:46:01.335Z,102247.56
2023-03-04T10:48:29.793Z,102243.69
2023-03-04T10:51:00.938Z,102232.84
2023-03-04T10:53:33.393Z,102243.13
2023-03-04T10:56:01.149Z,102243.06
2023-03-04T10:58:28.627Z,102240.44
2023-03-04T11:01:05.155Z,102246.53
2023-03-04T11:03:34.440Z,102247.59
2023-03-04T11:06:06.947Z,102242.44
2023-03-04T11:08:34.442Z,102246.97
2023-03-04T11:11:01.920Z,102245.31
2023-03-04T11:13:29.424Z,102242.75
2023-03-04T11:15:58.712Z,102238.19
2023-03-04T11:18:30.693Z,102235.25
2023-03-04T11:20:58.442Z,102236.50
2023-03-04T11:23:27.341Z,102237.06
2023-03-04T11:25:56.489Z,102229.88
2023-03-04T11:28:24.500Z,102225.50
2023-03-04T11:30:52.350Z,102229.09
2023-03-04T11:33:24.514Z,102224.88
2023-03-04T11:35:55.060Z,102225.84
2023-03-04T11:38:23.389Z,102225.97
2023-03-04T11:40:51.402Z,102221.69
2023-03-04T11:43:19.678Z,102220.03
2023-03-04T11:45:59.492Z,102217.41
2023-03-04T11:48:30.169Z,102219.19
2023-03-04T11:50:59.891Z,102219.91
2023-03-04T11:53:33.131Z,102220.66
2023-03-04T11:56:10.571Z,102212.72
2023-03-04T11:58:50.674Z,102215.28
2023-03-04T12:01:19.475Z,102212.72
2023-03-04T12:04:12.148Z,102213.66
2023-03-04T12:06:44.275Z,102209.25
2023-03-04T12:09:32.011Z,102202.31
2023-03-04T12:12:01.431Z,102205.03
2023-03-04T12:14:29.685Z,102198.13
2023-03-04T12:17:03.702Z,102198.25
2023-03-04T12:19:35.166Z,102204.59
2023-03-04T12:22:08.036Z,102196.81
2023-03-04T12:24:49.405Z,102193.41
2023-03-04T12:27:19.317Z,102191.63
2023-03-04T12:29:47.281Z,102194.16
2023-03-04T12:32:17.417Z,102186.16
2023-03-04T12:34:53.685Z,102182.53
2023-03-04T12:37:25.771Z,102183.25
2023-03-04T12:39:59.219Z,102177.00
2023-03-04T12:42:29.261Z,102175.94
2023-03-04T12:44:58.195Z,102179.31
2023-03-04T12:47:29.041Z,102173.09
2023-03-04T12:50:05.731Z,102178.22
2023-03-04T12:52:38.214Z,102173.88
2023-03-04T12:55:06.363Z,102166.00
2023-03-04T12:57:34.377Z,102162.59
2023-03-04T13:00:07.170Z,102165.22
2023-03-04T13:02:36.982Z,102162.59
2023-03-04T13:05:09.025Z,102160.78
2023-03-04T13:07:42.767Z,102156.28
2023-03-04T13:10:11.438Z,102155.97
2023-03-04T13:12:48.607Z,102149.56
2023-03-04T13:15:19.068Z,102145.78
2023-03-04T13:17:47.355Z,102136.84
2023-03-04T13:20:25.293Z,102144.59
2023-03-04T13:22:58.324Z,102142.88
2023-03-04T13:25:33.229Z,102137.66
2023-03-04T13:28:07.314Z,102130.59
2023-03-04T13:30:45.022Z,102140.03
2023-03-04T13:33:31.130Z,102129.41
2023-03-04T13:36:00.224Z,102136.38
2023-03-04T13:38:34.825Z,102127.56
2023-03-04T13:41:08.638Z,102123.25
2023-03-04T13:43:40.011Z,102124.09
2023-03-04T13:46:27.508Z,102130.19
2023-03-04T13:49:01.343Z,102124.81
2023-03-04T13:51:30.791Z,102114.19
2023-03-04T13:54:08.736Z,102112.44
2023-03-04T13:56:37.767Z,102116.81
2023-03-04T13:59:16.678Z,102117.72
2023-03-04T14:01:56.836Z,102107.50
2023-03-04T14:04:26.317Z,102109.44
2023-03-04T14:06:54.610Z,102108.78
2023-03-04T14:09:24.453Z,102114.22
2023-03-04T14:11:52.885Z,102111.78
2023-03-04T14:14:22.080Z,102114.47
2023-03-04T14:16:50.474Z,102115.38
2023-03-04T14:19:26.657Z,102112.84
2023-03-04T14:21:54.285Z,102108.53
2023-03-04T14:24:23.614Z,102116.47
2023-03-04T14:26:51.332Z,102108.69
2023-03-04T14:29:22.767Z,102107.84
2023-03-04T14:31:50.337Z,102102.59
2023-03-04T14:34:18.861Z,102100.81
2023-03-04T14:36:46.328Z,102091.16
2023-03-04T14:39:14.304Z,102096.34
2023-03-04T14:41:43.834Z,102097.97
2023-03-04T14:44:13.411Z,102094.47
2023-03-04T14:46:41.901Z,102086.59
2023-03-04T14:49:12.297Z,102090.06
2023-03-04T14:51:45.717Z,102089.22
2023-03-04T14:54:30.301Z,102081.47
2023-03-04T14:56:59.631Z,102082.38
2023-03-04T14:59:31.079Z,102078.06
2023-03-04T15:02:16.248Z,102084.22
2023-03-04T15:04:43.703Z,102096.47
2023-03-04T15:07:14.136Z,102086.06
2023-03-04T15:09:41.670Z,102091.34
2023-03-04T15:12:10.556Z,102094.94
2023-03-04T15:14:47.631Z,102100.44
2023-03-04T15:17:23.783Z,102097.09
2023-03-04T15:19:59.212Z,102099.88
2023-03-04T15:22:26.878Z,102094.84
2023-03-04T15:24:54.390Z,102092.31
2023-03-04T15:27:24.441Z,102091.63
2023-03-04T15:29:55.786Z,102088.22
2023-03-04T15:32:24.140Z,102087.38
2023-03-04T15:34:51.970Z,102083.97
2023-03-04T15:37:20.623Z,102084.81
2023-03-04T15:39:48.037Z,102085.75
2023-03-04T15:42:15.604Z,102083.97
2023-03-04T15:44:44.469Z,102073.47
2023-03-04T15:47:13.843Z,102075.19
2023-03-04T15:49:41.745Z,102077.75
2023-03-04T15:52:11.629Z,102072.50
2023-03-04T15:54:39.163Z,102076.88
2023-03-04T15:57:06.790Z,102078.59
2023-03-04T15:59:36.259Z,102071.56
2023-03-04T16:02:06.895Z,102075.91
2023-03-04T16:04:34.438Z,102069.81
2023-03-04T16:07:01.947Z,102071.56
2023-03-04T16:09:29.487Z,102075.13
2023-03-04T16:12:01.821Z,102070.88
2023-03-04T16:14:29.332Z,102074.34
2023-03-04T16:16:56.821Z,102074.41
2023-03-04T16:19:25.888Z,102075.31
2023-03-04T16:21:53.558Z,102072.69
2023-03-04T16:24:21.916Z,102066.63
2023-03-04T16:26:49.759Z,102069.25
2023-03-04T16:29:17.507Z,102072.00
2023-03-04T16:31:45.030Z,102072.00
2023-03-04T16:34:12.508Z,102068.47
2023-03-04T16:36:41.508Z,102064.22
2023-03-04T16:39:11.068Z,102071.28
2023-03-04T16:41:38.597Z,102074.81
2023-03-04T16:44:09.096Z,102078.28
2023-03-04T16:46:36.582Z,102074.00
2023-03-04T16:49:04.094Z,102067.13
2023-03-04T16:51:31.771Z,102075.91
2023-03-04T16:54:00.772Z,102072.47
2023-03-04T16:56:28.433Z,102074.31
2023-03-04T16:58:55.981Z,102072.59
2023-03-04T17:01:24.071Z,102077.97
2023-03-04T17:03:51.695Z,102068.38
2023-03-04T17:06:20.751Z,102082.41
2023-03-04T17:08:48.356Z,102084.22
2023-03-04T17:11:20.497Z,102080.81
2023-03-04T17:13:48.155Z,102080.13
2023-03-04T17:16:18.105Z,102081.09
2023-03-04T17:18:46.345Z,102082.06
2023-03-04T17:21:14.419Z,102083.09
2023-03-04T17:23:41.948Z,102082.34
2023-03-04T17:26:09.994Z,102083.31
2023-03-04T17:28:39.020Z,102083.44
2023-03-04T17:31:09.471Z,102087.06
2023-03-04T17:33:37.077Z,102084.59
2023-03-04T17:36:04.652Z,102079.44
2023-03-04T17:38:32.188Z,102084.78
2023-03-04T17:41:03.211Z,102087.47
2023-03-04T17:43:30.754Z,102089.31
2023-03-04T17:46:04.761Z,102084.06
2023-03-04T17:48:32.267Z,102084.91
2023-03-04T17:50:59.764Z,102084.97
2023-03-04T17:53:27.315Z,102088.50
2023-03-04T17:55:55.692Z,102087.72
2023-03-04T17:58:23.176Z,102083.41
2023-03-04T18:00:51.355Z,102087.78
2023-03-04T18:03:20.325Z,102083.41
2023-03-04T18:05:47.808Z,102088.63
2023-03-04T18:08:15.396Z,102097.41
2023-03-04T18:10:42.896Z,102089.56
2023-03-04T18:13:10.374Z,102093.09
2023-03-04T18:15:37.859Z,102094.88
2023-03-04T18:18:05.321Z,102101.03
2023-03-04T18:20:34.259Z,102095.78
2023-03-04T18:23:01.780Z,102100.16
2023-03-04T18:25:29.254Z,102097.63
2023-03-04T18:27:56.839Z,102107.25
2023-03-04T18:30:27.284Z,102104.69
2023-03-04T18:32:55.069Z,102098.69
2023-03-04T18:35:22.768Z,102099.66
2023-03-04T18:37:51.806Z,102111.03
2023-03-04T18:40:19.613Z,102105.81
2023-03-04T18:42:47.902Z,102108.44
2023-03-04T18:45:16.104Z,102108.44
2023-03-04T18:47:44.174Z,102102.28
2023-03-04T18:50:12.162Z,102105.88
2023-03-04T18:52:39.760Z,102112.94
2023-03-04T18:55:09.748Z,102113.84
2023-03-04T18:57:38.160Z,102112.22
2023-03-04T19:00:06.425Z,102119.28
2023-03-04T19:02:34.726Z,102118.50
2023-03-04T19:05:03.101Z,102114.19
2023-03-04T19:07:30.621Z,102104.56
2023-03-04T19:09:58.123Z,102114.19
2023-03-04T19:12:26.980Z,102112.44
2023-03-04T19:14:54.516Z,102101.13
2023-03-04T19:17:22.006Z,102102.88
2023-03-04T19:19:49.566Z,102101.19
2023-03-04T19:22:17.119Z,102103.78
2023-03-04T19:24:44.654Z,102107.31
2023-03-04T19:27:12.195Z,102106.47
2023-03-04T19:29:41.087Z,102100.38
2023-03-04T19:32:08.616Z,102098.69
2023-03-04T19:34:36.120Z,102096.06
2023-03-04T19:37:03.598Z,102098.69
2023-03-04T19:39:31.114Z,102103.06
2023-03-04T19:41:58.628Z,102097.81
2023-03-04T19:44:26.161Z,102103.06
2023-03-04T19:46:55.152Z,102100.44
2023-03-04T19:49:22.688Z,102109.13
2023-03-04T19:51:50.161Z,102110.91
2023-03-04T19:54:17.740Z,102106.59
2023-03-04T19:56:45.278Z,102110.94
2023-03-04T19:59:12.820Z,102101.34
2023-03-04T20:01:41.631Z,102108.28
2023-03-04T20:04:11.374Z,102105.69
2023-03-04T20:06:39.900Z,102100.47
2023-03-04T20:09:07.308Z,102098.75
2023-03-04T20:11:39.249Z,102096.13
2023-03-04T20:14:11.760Z,102097.97
2023-03-04T20:16:39.308Z,102095.41
2023-03-04T20:19:06.856Z,102093.75
2023-03-04T20:21:35.997Z,102090.31
2023-03-04T20:24:03.522Z,102095.66
2023-03-04T20:26:31.457Z,102088.72
2023-03-04T20:28:58.987Z,102093.13
2023-03-04T20:31:27.356Z,102092.28
2023-03-04T20:33:55.674Z,102097.63
2023-03-04T20:36:23.696Z,102090.75
2023-03-04T20:39:00.673Z,102096.88
2023-03-04T20:41:29.775Z,102091.69
2023-03-04T20:43:57.228Z,102094.34
2023-03-04T20:46:33.090Z,102096.13
2023-03-04T20:49:01.064Z,102097.03
2023-03-04T20:51:29.145Z,102097.06
2023-03-04T20:53:58.121Z,102101.41
2023-03-04T20:56:25.667Z,102098.00
2023-03-04T20:58:53.417Z,102098.84
2023-03-04T21:01:20.941Z,102087.53
2023-03-04T21:03:48.718Z,102096.28
2023-03-04T21:06:16.284Z,102090.16
2023-03-04T21:08:44.057Z,102095.41
2023-03-04T21:11:12.948Z,102089.31
2023-03-04T21:13:41.378Z,102085.91
2023-03-04T21:16:12.000Z,102081.56
2023-03-04T21:18:39.572Z,102080.66
2023-03-04T21:21:10.931Z,102091.13
2023-03-04T21:23:38.769Z,102090.28
2023-03-04T21:26:06.454Z,102085.09
2023-03-04T21:28:35.302Z,102084.31
2023-03-04T21:31:02.826Z,102079.16
2023-03-04T21:33:30.867Z,102080.06
2023-03-04T21:35:58.458Z,102070.50
2023-03-04T21:38:26.148Z,102080.97
2023-03-04T21:40:53.833Z,102074.91
2023-03-04T21:43:23.336Z,102072.34
2023-03-04T21:45:56.200Z,102077.56
2023-03-04T21:48:23.831Z,102084.56
2023-03-04T21:50:51.439Z,102076.72
2023-03-04T21:53:21.694Z,102067.19
2023-03-04T21:55:49.446Z,102071.63
2023-03-04T21:58:16.944Z,102057.81
2023-03-04T22:00:44.514Z,102063.16
2023-03-04T22:03:13.437Z,102059.75
2023-03-04T22:05:41.724Z,102057.16
2023-03-04T22:08:09.219Z,102058.94
2023-03-04T22:10:37.965Z,102062.44
2023-03-04T22:13:09.032Z,102055.50
2023-03-04T22:15:37.811Z,102058.19
2023-03-04T22:18:05.570Z,102052.09
2023-03-04T22:20:35.328Z,102041.63
2023-03-04T22:23:02.853Z,102043.47
2023-03-04T22:25:30.536Z,102043.53
2023-03-04T22:27:58.061Z,102036.59
2023-03-04T22:30:26.130Z,102031.38
2023-03-04T22:32:53.694Z,102033.19
2023-03-04T22:35:21.282Z,102034.91
2023-03-04T22:37:50.191Z,102025.41
2023-03-04T22:40:17.787Z,102033.28
2023-03-04T22:42:45.561Z,102027.25
2023-03-04T22:45:13.653Z,102039.47
2023-03-04T22:47:41.275Z,102030.75
2023-03-04T22:50:09.351Z,102028.16
2023-03-04T22:52:36.858Z,102023.84
2023-03-04T22:55:06.242Z,102027.41
2023-03-04T22:57:33.747Z,102021.31
2023-03-04T23:00:01.372Z,102024.81
2023-03-04T23:02:28.938Z,102010.09
2023-03-04T23:04:56.508Z,102009.25
2023-03-04T23:07:23.987Z,102014.47
2023-03-04T23:09:51.561Z,102001.41
2023-03-04T23:12:20.535Z,102006.59
2023-03-04T23:14:48.090Z,102002.22
2023-03-04T23:17:15.576Z,101998.78
2023-03-04T23:19:43.049Z,101990.03
2023-03-04T23:22:10.821Z,101994.41
2023-03-04T23:24:38.403Z,101990.03
2023-03-04T23:27:05.900Z,101995.28
2023-03-04T23:29:34.817Z,101990.03
2023-03-04T23:32:02.346Z,101987.44
2023-03-04T23:34:30.023Z,101993.56
2023-03-04T23:36:57.461Z,101984.94
2023-03-04T23:39:24.953Z,101986.72
2023-03-04T23:41:52.480Z,101985.91
2023-03-04T23:44:19.946Z,101987.63
2023-03-04T23:46:48.801Z,101989.38
2023-03-04T23:49:17.838Z,101984.22
2023-03-04T23:51:45.447Z,101976.38
2023-03-04T23:54:13.127Z,101981.59
2023-03-04T23:56:40.672Z,101972.91
2023-03-04T23:59:08.670Z,101971.16
